createdAt,value
2019-04-16T00:00:14.173Z,50.63
2019-04-16T00:02:52.128Z,50.80
2019-04-16T00:05:29.978Z,50.78
2019-04-16T00:08:19.360Z,51.22
2019-04-16T00:10:43.716Z,50.80
2019-04-16T00:13:29.585Z,50.78
2019-04-16T00:16:02.965Z,51.02
2019-04-16T00:18:34.752Z,50.80
2019-04-16T00:21:10.830Z,50.87
2019-04-16T00:23:46.695Z,51.03
2019-04-16T00:26:17.930Z,51.02
2019-04-16T00:28:49.580Z,51.11
2019-04-16T00:31:21.492Z,51.20
2019-04-16T00:33:53.441Z,51.53
2019-04-16T00:36:25.273Z,51.59
2019-04-16T00:38:58.122Z,51.11
2019-04-16T00:41:29.902Z,51.81
2019-04-16T00:44:01.744Z,51.80
2019-04-16T00:46:33.645Z,51.95
2019-04-16T00:49:05.498Z,51.68
2019-04-16T00:51:37.348Z,51.71
2019-04-16T00:54:10.440Z,51.59
2019-04-16T00:56:43.515Z,51.78
2019-04-16T00:59:17.241Z,51.63
2019-04-16T01:01:49.011Z,51.90
2019-04-16T01:04:20.930Z,51.74
2019-04-16T01:06:52.694Z,51.95
2019-04-16T01:09:24.619Z,52.16
2019-04-16T01:11:56.702Z,52.25
2019-04-16T01:14:28.489Z,52.31
2019-04-16T01:17:03.891Z,52.23
2019-04-16T01:19:35.513Z,52.26
2019-04-16T01:22:07.996Z,52.25
2019-04-16T01:24:40.753Z,52.09
2019-04-16T01:27:12.662Z,52.36
2019-04-16T01:29:44.572Z,52.21
2019-04-16T01:32:21.026Z,52.08
2019-04-16T01:34:57.570Z,52.79
2019-04-16T01:37:30.305Z,52.44
2019-04-16T01:40:03.848Z,52.82
2019-04-16T01:42:35.701Z,52.64
2019-04-16T01:45:08.509Z,52.22
2019-04-16T01:47:40.263Z,52.83
2019-04-16T01:50:13.857Z,52.72
2019-04-16T01:52:49.467Z,52.71
2019-04-16T01:55:18.990Z,52.74
2019-04-16T01:57:50.812Z,52.74
2019-04-16T02:00:22.661Z,52.71
2019-04-16T02:02:54.499Z,53.27
2019-04-16T02:05:26.273Z,53.90
2019-04-16T02:07:59.289Z,54.00
2019-04-16T02:10:31.513Z,53.71
2019-04-16T02:13:03.302Z,53.58
2019-04-16T02:15:35.065Z,53.81
2019-04-16T02:18:06.828Z,53.57
2019-04-16T02:20:39.592Z,53.86
2019-04-16T02:23:13.525Z,53.82
2019-04-16T02:25:45.039Z,53.83
2019-04-16T02:28:16.881Z,53.48
2019-04-16T02:30:48.748Z,53.86
2019-04-16T02:33:20.549Z,54.07
2019-04-16T02:35:52.403Z,54.07
2019-04-16T02:38:24.234Z,54.17
2019-04-16T02:40:56.006Z,54.17
2019-04-16T02:43:27.878Z,53.97
2019-04-16T02:45:59.655Z,54.30
2019-04-16T02:48:31.501Z,54.00
2019-04-16T02:51:20.058Z,54.47
2019-04-16T02:54:09.996Z,55.10
2019-04-16T02:56:59.722Z,54.72
2019-04-16T02:59:46.001Z,54.68
2019-04-16T03:02:15.922Z,54.56
2019-04-16T03:05:01.714Z,54.56
2019-04-16T03:07:33.665Z,54.81
2019-04-16T03:10:05.903Z,55.27
2019-04-16T03:12:37.748Z,55.27
2019-04-16T03:15:09.607Z,55.01
2019-04-16T03:17:43.743Z,55.53
2019-04-16T03:20:20.755Z,55.36
2019-04-16T03:22:53.768Z,55.20
2019-04-16T03:25:25.547Z,55.57
2019-04-16T03:27:57.533Z,55.39
2019-04-16T03:30:30.456Z,55.92
2019-04-16T03:33:10.266Z,56.05
2019-04-16T03:35:35.924Z,55.90
2019-04-16T03:38:08.041Z,55.93
2019-04-16T03:40:40.044Z,56.07
2019-04-16T03:43:13.714Z,55.51
2019-04-16T03:45:47.581Z,55.71
2019-04-16T03:48:20.650Z,56.35
2019-04-16T03:50:53.317Z,56.43
2019-04-16T03:53:25.245Z,56.03
2019-04-16T03:55:58.315Z,56.19
2019-04-16T03:58:30.538Z,56.21
2019-04-16T04:01:02.571Z,56.28
2019-04-16T04:03:34.360Z,56.07
2019-04-16T04:06:07.873Z,56.52
2019-04-16T04:08:39.640Z,56.25
2019-04-16T04:11:11.455Z,56.30
2019-04-16T04:13:43.233Z,56.64
2019-04-16T04:16:15.689Z,56.69
2019-04-16T04:18:47.577Z,56.44
2019-04-16T04:21:22.102Z,56.44
2019-04-16T04:23:52.950Z,56.90
2019-04-16T04:26:24.934Z,56.77
2019-04-16T04:28:56.793Z,56.66
2019-04-16T04:31:32.030Z,57.12
2019-04-16T04:34:02.056Z,56.96
2019-04-16T04:36:34.997Z,57.26
2019-04-16T04:39:09.923Z,57.32
2019-04-16T04:41:42.287Z,57.37
2019-04-16T04:44:14.129Z,57.02
2019-04-16T04:46:46.866Z,56.74
2019-04-16T04:49:18.803Z,57.30
2019-04-16T04:51:50.609Z,57.51
2019-04-16T04:54:23.499Z,57.43
2019-04-16T04:56:56.397Z,57.61
2019-04-16T04:59:29.007Z,57.93
2019-04-16T05:02:01.080Z,57.61
2019-04-16T05:04:37.642Z,57.26
2019-04-16T05:07:11.297Z,57.61
2019-04-16T05:09:43.134Z,57.61
2019-04-16T05:12:17.834Z,57.43
2019-04-16T05:14:57.104Z,57.30
2019-04-16T05:17:27.615Z,57.33
2019-04-16T05:19:59.368Z,57.49
2019-04-16T05:22:32.921Z,57.34
2019-04-16T05:25:07.793Z,56.83
2019-04-16T05:27:41.076Z,56.83
2019-04-16T05:30:13.324Z,57.35
2019-04-16T05:32:45.498Z,56.95
2019-04-16T05:35:17.349Z,56.81
2019-04-16T05:37:51.487Z,57.14
2019-04-16T05:40:22.806Z,56.93
2019-04-16T05:42:55.823Z,56.98
2019-04-16T05:45:28.225Z,57.35
2019-04-16T05:48:00.104Z,56.97
2019-04-16T05:50:31.877Z,56.58
2019-04-16T05:53:05.468Z,56.85
2019-04-16T05:55:49.658Z,56.99
2019-04-16T05:58:18.337Z,56.54
2019-04-16T06:01:04.133Z,56.74
2019-04-16T06:06:00.878Z,56.65
2019-04-16T06:08:32.568Z,56.63
2019-04-16T06:11:04.603Z,56.98
2019-04-16T06:13:46.774Z,55.89
2019-04-16T06:16:23.936Z,56.25
2019-04-16T06:19:08.500Z,56.73
2019-04-16T06:21:58.610Z,56.66
2019-04-16T06:24:35.772Z,56.29
2019-04-16T06:27:09.588Z,55.89
2019-04-16T06:29:47.260Z,55.50
2019-04-16T06:32:18.871Z,55.48
2019-04-16T06:35:08.626Z,55.41
2019-04-16T06:37:54.096Z,54.93
2019-04-16T06:40:39.585Z,54.92
2019-04-16T06:43:25.234Z,55.27
2019-04-16T06:45:55.501Z,55.26
2019-04-16T06:48:28.827Z,54.58
2019-04-16T06:51:18.404Z,54.93
2019-04-16T06:53:49.935Z,54.61
2019-04-16T06:56:40.355Z,54.91
2019-04-16T06:59:17.657Z,54.64
2019-04-16T07:02:01.033Z,54.56
2019-04-16T07:04:37.223Z,54.55
2019-04-16T07:07:38.364Z,54.60
2019-04-16T07:10:04.764Z,53.37
2019-04-16T07:12:45.583Z,54.28
2019-04-16T07:15:22.385Z,54.16
2019-04-16T07:17:52.156Z,52.97
2019-04-16T07:20:23.986Z,53.38
2019-04-16T07:22:55.789Z,53.42
2019-04-16T07:25:29.572Z,53.59
2019-04-16T07:28:04.556Z,53.22
2019-04-16T07:30:43.887Z,52.31
2019-04-16T07:33:35.484Z,52.41
2019-04-16T07:36:29.286Z,51.81
2019-04-16T07:39:18.000Z,52.04
2019-04-16T07:41:50.790Z,52.03
2019-04-16T07:44:45.844Z,51.05
2019-04-16T07:47:23.909Z,50.38
2019-04-16T07:50:00.502Z,50.72
2019-04-16T07:52:50.406Z,49.36
2019-04-16T07:55:27.487Z,49.98
2019-04-16T07:58:00.410Z,50.09
2019-04-16T08:00:32.410Z,49.30
2019-04-16T08:03:07.053Z,49.60
2019-04-16T08:05:41.202Z,49.23
2019-04-16T08:08:15.011Z,48.36
2019-04-16T08:10:46.872Z,48.45
2019-04-16T08:13:22.503Z,48.40
2019-04-16T08:15:56.727Z,47.80
2019-04-16T08:18:27.901Z,47.48
2019-04-16T08:21:10.165Z,46.01
2019-04-16T08:23:44.265Z,45.22
2019-04-16T08:26:34.072Z,44.36
2019-04-16T08:29:05.837Z,43.62
2019-04-16T08:31:44.527Z,43.38
2019-04-16T08:34:33.096Z,42.46
2019-04-16T08:37:07.976Z,41.83
2019-04-16T08:39:39.837Z,42.11
2019-04-16T08:42:11.958Z,41.14
2019-04-16T08:44:43.780Z,39.25
2019-04-16T08:47:21.429Z,39.90
2019-04-16T08:50:12.205Z,39.41
2019-04-16T08:52:56.676Z,39.15
2019-04-16T08:55:28.438Z,38.82
2019-04-16T08:58:06.046Z,38.39
2019-04-16T09:00:39.711Z,38.41
2019-04-16T09:03:11.484Z,37.44
2019-04-16T09:05:43.254Z,38.27
2019-04-16T09:08:28.388Z,37.92
2019-04-16T09:11:23.527Z,36.78
2019-04-16T09:14:08.771Z,36.07
2019-04-16T09:16:57.188Z,37.56
2019-04-16T09:19:31.926Z,37.58
2019-04-16T09:22:09.220Z,37.68
2019-04-16T09:24:59.069Z,37.61
2019-04-16T09:27:44.694Z,36.23
2019-04-16T09:30:27.245Z,36.64
2019-04-16T09:33:03.543Z,36.39
2019-04-16T09:36:03.710Z,34.93
2019-04-16T09:38:49.144Z,35.13
2019-04-16T09:41:36.955Z,35.38
2019-04-16T09:44:08.937Z,34.89
2019-04-16T09:46:51.267Z,35.22
2019-04-16T09:49:20.182Z,34.45
2019-04-16T09:51:52.088Z,35.12
2019-04-16T09:54:26.438Z,35.40
2019-04-16T09:56:59.735Z,35.30
2019-04-16T09:59:36.597Z,32.93
2019-04-16T10:02:11.143Z,34.71
2019-04-16T10:04:52.022Z,32.96
2019-04-16T10:07:23.950Z,34.21
2019-04-16T10:09:55.648Z,34.53
2019-04-16T10:12:30.152Z,34.33
2019-04-16T10:15:11.138Z,33.31
2019-04-16T10:17:45.818Z,33.06
2019-04-16T10:20:30.034Z,33.02
2019-04-16T10:23:04.589Z,34.04
2019-04-16T10:25:53.776Z,33.43
2019-04-16T10:28:44.598Z,34.19
2019-04-16T10:31:34.963Z,33.82
2019-04-16T10:34:06.688Z,32.70
2019-04-16T10:36:47.280Z,31.26
2019-04-16T10:39:18.895Z,31.74
2019-04-16T10:41:56.480Z,32.45
2019-04-16T10:44:37.260Z,33.46
2019-04-16T10:47:26.932Z,34.02
2019-04-16T10:50:09.518Z,32.41
2019-04-16T10:52:59.147Z,32.39
2019-04-16T10:55:50.199Z,30.99
2019-04-16T10:58:42.758Z,31.72
2019-04-16T11:01:17.378Z,30.93
2019-04-16T11:03:50.930Z,30.23
2019-04-16T11:06:47.567Z,31.26
2019-04-16T11:09:37.703Z,31.36
2019-04-16T11:12:09.787Z,30.69
2019-04-16T11:14:54.425Z,32.06
2019-04-16T11:17:29.381Z,31.14
2019-04-16T11:20:06.184Z,30.26
2019-04-16T11:22:56.204Z,31.94
2019-04-16T11:25:31.548Z,30.97
2019-04-16T11:28:06.428Z,30.79
2019-04-16T11:30:42.799Z,31.62
2019-04-16T11:33:14.888Z,32.47
2019-04-16T11:35:56.362Z,31.38
2019-04-16T11:38:28.449Z,32.48
2019-04-16T11:41:06.692Z,30.90
2019-04-16T11:43:38.747Z,30.74
2019-04-16T11:46:28.350Z,30.17
2019-04-16T11:49:17.828Z,30.35
2019-04-16T11:51:55.434Z,30.78
2019-04-16T11:54:27.239Z,30.95
2019-04-16T11:57:00.248Z,30.02
2019-04-16T11:59:38.214Z,27.51
2019-04-16T12:02:27.975Z,28.94
2019-04-16T12:05:04.160Z,29.45
2019-04-16T12:07:55.334Z,28.19
2019-04-16T12:10:41.510Z,29.24
2019-04-16T12:13:34.106Z,28.28
2019-04-16T12:16:28.552Z,27.04
2019-04-16T12:19:18.145Z,26.84
2019-04-16T12:22:15.083Z,27.22
2019-04-16T12:24:51.212Z,24.73
2019-04-16T12:27:34.318Z,25.78
2019-04-16T12:30:30.192Z,26.34
2019-04-16T12:33:19.492Z,24.70
2019-04-16T12:36:12.826Z,23.68
2019-04-16T12:39:00.898Z,23.71
2019-04-16T12:42:06.140Z,22.93
2019-04-16T12:44:45.670Z,22.50
2019-04-16T12:47:24.055Z,21.72
2019-04-16T12:50:18.942Z,21.27
2019-04-16T12:53:02.677Z,20.16
2019-04-16T12:55:57.258Z,20.22
2019-04-16T12:58:50.696Z,20.23
2019-04-16T13:01:23.855Z,19.73
2019-04-16T13:04:17.180Z,19.74
2019-04-16T13:06:53.444Z,19.42
2019-04-16T13:09:39.174Z,18.62
2019-04-16T13:12:32.491Z,18.05
2019-04-16T13:15:26.263Z,16.86
2019-04-16T13:18:19.979Z,16.95
2019-04-16T13:21:10.834Z,17.55
2019-04-16T13:24:02.248Z,16.81
2019-04-16T13:26:53.372Z,17.51
2019-04-16T13:29:29.404Z,16.28
2019-04-16T13:31:59.336Z,16.89
2019-04-16T13:34:34.784Z,16.39
2019-04-16T13:37:06.631Z,16.30
2019-04-16T13:39:40.484Z,16.39
2019-04-16T13:42:12.619Z,15.66
2019-04-16T13:44:49.067Z,15.79
2019-04-16T13:47:20.916Z,15.96
2019-04-16T13:50:02.592Z,15.73
2019-04-16T13:52:33.480Z,15.42
2019-04-16T13:55:25.261Z,14.89
2019-04-16T13:58:07.397Z,14.47
2019-04-16T14:01:08.891Z,15.41
2019-04-16T14:03:38.285Z,15.24
2019-04-16T14:06:12.832Z,13.98
2019-04-16T14:08:45.574Z,14.25
2019-04-16T14:11:20.579Z,13.90
2019-04-16T14:13:52.635Z,13.69
2019-04-16T14:16:24.409Z,14.73
2019-04-16T14:18:56.179Z,14.32
2019-04-16T14:21:28.035Z,14.77
2019-04-16T14:23:59.829Z,14.03
2019-04-16T14:26:31.694Z,13.88
2019-04-16T14:29:06.802Z,13.93
2019-04-16T14:31:37.480Z,13.50
2019-04-16T14:34:20.722Z,13.93
2019-04-16T14:36:53.184Z,13.63
2019-04-16T14:39:31.061Z,13.12
2019-04-16T14:42:03.140Z,13.03
2019-04-16T14:44:52.700Z,12.85
2019-04-16T14:47:24.621Z,13.40
2019-04-16T14:49:57.909Z,13.44
2019-04-16T14:52:29.954Z,13.44
2019-04-16T14:55:03.548Z,13.08
2019-04-16T14:57:39.784Z,13.45
2019-04-16T15:00:28.181Z,13.61
2019-04-16T15:03:01.661Z,13.28
2019-04-16T15:05:35.168Z,13.28
2019-04-16T15:08:08.762Z,12.82
2019-04-16T15:10:58.031Z,13.52
2019-04-16T15:13:34.251Z,12.92
2019-04-16T15:16:21.261Z,12.92
2019-04-16T15:18:52.070Z,12.78
2019-04-16T15:21:43.043Z,12.63
2019-04-16T15:24:16.475Z,12.99
2019-04-16T15:26:54.271Z,13.05
2019-04-16T15:29:31.356Z,12.85
2019-04-16T15:32:19.932Z,13.52
2019-04-16T15:34:53.352Z,13.03
2019-04-16T15:37:26.795Z,13.09
2019-04-16T15:40:00.233Z,13.02
2019-04-16T15:42:40.859Z,12.87
2019-04-16T15:45:14.858Z,12.58
2019-04-16T15:48:06.549Z,13.28
2019-04-16T15:50:45.901Z,13.77
2019-04-16T15:53:25.423Z,14.13
2019-04-16T15:55:59.105Z,14.83
2019-04-16T15:58:32.781Z,15.29
2019-04-16T16:01:21.686Z,15.69
2019-04-16T16:04:10.406Z,16.31
2019-04-16T16:06:48.796Z,17.18
2019-04-16T16:09:31.209Z,17.31
2019-04-16T16:12:10.992Z,17.08
2019-04-16T16:14:43.063Z,18.25
2019-04-16T16:17:16.014Z,19.35
2019-04-16T16:19:48.754Z,18.64
2019-04-16T16:22:20.816Z,19.14
2019-04-16T16:24:52.674Z,19.43
2019-04-16T16:27:24.563Z,19.80
2019-04-16T16:29:56.277Z,19.64
2019-04-16T16:32:28.083Z,19.80
2019-04-16T16:34:59.863Z,20.24
2019-04-16T16:37:33.949Z,20.80
2019-04-16T16:40:07.292Z,20.17
2019-04-16T16:42:39.308Z,22.14
2019-04-16T16:45:11.188Z,21.75
2019-04-16T16:47:43.077Z,20.98
2019-04-16T16:50:15.039Z,21.41
2019-04-16T16:53:04.904Z,21.33
2019-04-16T16:55:38.473Z,22.36
2019-04-16T16:58:12.173Z,22.64
2019-04-16T17:01:02.643Z,23.09
2019-04-16T17:03:42.311Z,22.74
2019-04-16T17:06:15.744Z,23.04
2019-04-16T17:08:47.558Z,23.69
2019-04-16T17:11:19.271Z,23.81
2019-04-16T17:13:51.793Z,22.85
2019-04-16T17:16:24.400Z,24.51
2019-04-16T17:18:56.668Z,24.63
2019-04-16T17:21:28.822Z,25.27
2019-04-16T17:24:00.713Z,24.05
2019-04-16T17:26:33.009Z,25.00
2019-04-16T17:29:05.282Z,25.36
2019-04-16T17:31:37.625Z,24.92
2019-04-16T17:34:09.544Z,25.65
2019-04-16T17:36:41.574Z,25.84
2019-04-16T17:39:15.817Z,25.55
2019-04-16T17:41:50.400Z,25.55
2019-04-16T17:44:27.447Z,26.52
2019-04-16T17:47:01.468Z,25.82
2019-04-16T17:49:54.786Z,25.89
2019-04-16T17:52:31.278Z,26.13
2019-04-16T17:55:20.703Z,26.16
2019-04-16T17:57:57.157Z,26.42
2019-04-16T18:00:46.695Z,26.01
2019-04-16T18:03:23.086Z,26.38
2019-04-16T18:06:14.796Z,26.89
2019-04-16T18:09:04.901Z,26.71
2019-04-16T18:11:44.717Z,27.49
2019-04-16T18:14:17.078Z,27.37
2019-04-16T18:16:54.309Z,28.77
2019-04-16T18:19:27.469Z,28.57
2019-04-16T18:22:04.367Z,28.95
2019-04-16T18:24:42.242Z,29.53
2019-04-16T18:27:29.159Z,28.83
2019-04-16T18:30:07.212Z,29.57
2019-04-16T18:32:58.524Z,30.02
2019-04-16T18:35:32.039Z,29.36
2019-04-16T18:38:07.047Z,29.47
2019-04-16T18:40:44.437Z,30.38
2019-04-16T18:43:18.478Z,30.84
2019-04-16T18:45:52.404Z,30.99
2019-04-16T18:48:25.150Z,31.60
2019-04-16T18:50:59.958Z,32.25
2019-04-16T18:53:30.490Z,31.27
2019-04-16T18:56:02.361Z,30.95
2019-04-16T18:58:34.344Z,31.29
2019-04-16T19:01:10.419Z,33.43
2019-04-16T19:03:42.289Z,32.29
2019-04-16T19:06:14.379Z,33.86
2019-04-16T19:08:47.798Z,34.26
2019-04-16T19:11:20.462Z,36.27
2019-04-16T19:13:53.609Z,36.53
2019-04-16T19:16:25.801Z,35.95
2019-04-16T19:18:57.912Z,35.41
2019-04-16T19:21:29.983Z,35.57
2019-04-16T19:24:01.847Z,35.90
2019-04-16T19:26:33.763Z,36.01
2019-04-16T19:29:06.296Z,36.79
2019-04-16T19:31:39.039Z,37.62
2019-04-16T19:34:11.211Z,36.41
2019-04-16T19:36:43.438Z,37.11
2019-04-16T19:39:18.609Z,36.85
2019-04-16T19:41:53.000Z,36.83
2019-04-16T19:44:24.766Z,36.54
2019-04-16T19:46:57.072Z,37.12
2019-04-16T19:49:30.525Z,36.66
2019-04-16T19:52:03.111Z,39.00
2019-04-16T19:54:35.456Z,39.18
2019-04-16T19:57:08.806Z,40.47
2019-04-16T19:59:46.381Z,40.37
2019-04-16T20:02:16.773Z,39.64
2019-04-16T20:04:50.749Z,38.47
2019-04-16T20:07:23.063Z,39.01
2019-04-16T20:09:55.423Z,39.04
2019-04-16T20:12:28.064Z,39.57
2019-04-16T20:15:08.261Z,40.10
2019-04-16T20:17:36.117Z,39.01
2019-04-16T20:20:09.511Z,39.56
2019-04-16T20:22:41.731Z,39.29
2019-04-16T20:25:14.595Z,39.33
2019-04-16T20:27:46.886Z,39.92
2019-04-16T20:30:23.075Z,39.31
2019-04-16T20:32:53.508Z,36.12
2019-04-16T20:35:25.523Z,37.54
2019-04-16T20:37:57.367Z,37.16
2019-04-16T20:40:29.147Z,36.72
2019-04-16T20:43:01.108Z,36.61
2019-04-16T20:45:33.069Z,36.65
2019-04-16T20:48:05.349Z,37.01
2019-04-16T20:50:37.291Z,37.29
2019-04-16T20:53:09.111Z,37.34
2019-04-16T20:55:40.893Z,37.70
2019-04-16T20:58:14.753Z,37.70
2019-04-16T21:00:47.887Z,36.57
2019-04-16T21:03:22.336Z,36.49
2019-04-16T21:05:59.043Z,37.06
2019-04-16T21:08:26.885Z,36.97
2019-04-16T21:10:59.991Z,37.40
2019-04-16T21:13:32.076Z,37.22
2019-04-16T21:16:03.995Z,37.00
2019-04-16T21:18:35.938Z,37.43
2019-04-16T21:21:07.729Z,37.03
2019-04-16T21:23:40.660Z,37.40
2019-04-16T21:26:12.466Z,38.30
2019-04-16T21:28:58.521Z,37.60
2019-04-16T21:31:33.055Z,38.45
2019-04-16T21:34:09.360Z,38.08
2019-04-16T21:36:43.504Z,38.44
2019-04-16T21:39:25.905Z,38.30
2019-04-16T21:42:00.916Z,38.77
2019-04-16T21:44:31.260Z,38.35
2019-04-16T21:47:03.267Z,38.76
2019-04-16T21:49:38.758Z,38.99
2019-04-16T21:52:08.603Z,39.21
2019-04-16T21:54:40.534Z,39.58
2019-04-16T21:57:13.260Z,40.13
2019-04-16T21:59:45.958Z,40.55
2019-04-16T22:02:25.114Z,40.45
2019-04-16T22:04:56.973Z,41.22
2019-04-16T22:07:29.095Z,40.55
2019-04-16T22:10:02.963Z,41.19
2019-04-16T22:12:34.838Z,41.47
2019-04-16T22:15:07.569Z,41.43
2019-04-16T22:17:39.452Z,41.60
2019-04-16T22:20:14.695Z,41.95
2019-04-16T22:22:50.438Z,41.66
2019-04-16T22:25:27.795Z,41.63
2019-04-16T22:28:01.195Z,42.02
2019-04-16T22:30:34.163Z,42.14
2019-04-16T22:33:07.749Z,42.61
2019-04-16T22:35:39.596Z,43.02
2019-04-16T22:38:14.288Z,42.84
2019-04-16T22:40:51.548Z,43.38
2019-04-16T22:43:27.917Z,43.67
2019-04-16T22:46:03.053Z,43.79
2019-04-16T22:48:37.428Z,43.86
2019-04-16T22:51:14.515Z,43.51
2019-04-16T22:53:46.521Z,43.63
2019-04-16T22:56:18.808Z,44.01
2019-04-16T22:58:52.405Z,44.03
2019-04-16T23:01:25.987Z,44.15
2019-04-16T23:04:03.813Z,43.29
2019-04-16T23:06:38.683Z,43.95
2019-04-16T23:09:09.553Z,43.43
2019-04-16T23:11:41.430Z,43.96
2019-04-16T23:14:18.003Z,44.18
2019-04-16T23:16:49.764Z,44.26
2019-04-16T23:19:26.099Z,44.82
2019-04-16T23:22:00.108Z,45.11
2019-04-16T23:24:32.592Z,45.21
2019-04-16T23:27:05.694Z,45.43
2019-04-16T23:29:41.411Z,45.16
2019-04-16T23:32:13.296Z,45.85
2019-04-16T23:34:45.421Z,45.82
2019-04-16T23:37:23.286Z,46.38
2019-04-16T23:39:55.947Z,46.56
2019-04-16T23:42:27.723Z,46.87
2019-04-16T23:45:13.207Z,47.36
2019-04-16T23:47:46.773Z,47.52
2019-04-16T23:50:25.979Z,48.37
2019-04-16T23:53:08.978Z,47.75
2019-04-16T23:55:50.132Z,48.37
2019-04-16T23:58:28.544Z,48.06
